sensor_id;sensor_type;location;lat;lon;timestamp;pressure;altitude;pressure_sealevel;temperature;humidity
43745;BME280;29359;53.048;8.732;2023-09-19T00:01:41;100480.59;;;17.13;91.40
43745;BME280;29359;53.048;8.732;2023-09-19T00:03:43;100482.50;;;17.11;91.29
43745;BME280;29359;53.048;8.732;2023-09-19T00:05:46;100480.78;;;17.10;91.71
43745;BME280;29359;53.048;8.732;2023-09-19T00:07:50;100500.41;;;17.09;91.98
43745;BME280;29359;53.048;8.732;2023-09-19T00:09:52;100500.41;;;17.09;91.92
43745;BME280;29359;53.048;8.732;2023-09-19T00:11:54;100503.84;;;17.11;91.84
43745;BME280;29359;53.048;8.732;2023-09-19T00:13:56;100506.41;;;17.13;91.97
43745;BME280;29359;53.048;8.732;2023-09-19T00:16:00;100503.56;;;17.16;91.41
43745;BME280;29359;53.048;8.732;2023-09-19T00:18:03;100507.09;;;17.16;91.10
43745;BME280;29359;53.048;8.732;2023-09-19T00:20:06;100511.66;;;17.14;91.21
43745;BME280;29359;53.048;8.732;2023-09-19T00:22:09;100507.28;;;17.13;91.67
43745;BME280;29359;53.048;8.732;2023-09-19T00:24:10;100514.50;;;17.11;91.65
43745;BME280;29359;53.048;8.732;2023-09-19T00:26:13;100520.78;;;17.10;91.74
43745;BME280;29359;53.048;8.732;2023-09-19T00:28:15;100513.75;;;17.09;91.42
43745;BME280;29359;53.048;8.732;2023-09-19T00:30:19;100514.69;;;17.08;91.71
43745;BME280;29359;53.048;8.732;2023-09-19T00:32:25;100508.50;;;17.08;91.65
43745;BME280;29359;53.048;8.732;2023-09-19T00:34:33;100515.66;;;17.07;91.22
43745;BME280;29359;53.048;8.732;2023-09-19T00:36:37;100520.13;;;17.07;91.28
43745;BME280;29359;53.048;8.732;2023-09-19T00:38:40;100527.94;;;17.10;90.60
43745;BME280;29359;53.048;8.732;2023-09-19T00:40:46;100531.47;;;17.10;91.17
43745;BME280;29359;53.048;8.732;2023-09-19T00:42:48;100533.19;;;17.11;90.66
43745;BME280;29359;53.048;8.732;2023-09-19T00:44:50;100535.94;;;17.10;90.76
43745;BME280;29359;53.048;8.732;2023-09-19T00:46:52;100543.75;;;17.13;90.90
43745;BME280;29359;53.048;8.732;2023-09-19T00:48:54;100544.63;;;17.13;91.01
43745;BME280;29359;53.048;8.732;2023-09-19T00:51:02;100541.94;;;17.13;91.49
43745;BME280;29359;53.048;8.732;2023-09-19T00:53:06;100535.94;;;17.10;92.23
43745;BME280;29359;53.048;8.732;2023-09-19T00:55:10;100537.84;;;17.08;92.43
43745;BME280;29359;53.048;8.732;2023-09-19T00:57:14;100546.97;;;17.04;92.08
43745;BME280;29359;53.048;8.732;2023-09-19T00:59:16;100554.22;;;17.02;91.83
43745;BME280;29359;53.048;8.732;2023-09-19T01:01:18;100541.06;;;16.99;92.69
43745;BME280;29359;53.048;8.732;2023-09-19T01:03:22;100551.81;;;16.97;92.95
43745;BME280;29359;53.048;8.732;2023-09-19T01:05:24;100561.72;;;16.95;93.09
43745;BME280;29359;53.048;8.732;2023-09-19T01:07:27;100558.28;;;16.93;93.92
43745;BME280;29359;53.048;8.732;2023-09-19T01:09:31;100563.19;;;16.85;94.84
43745;BME280;29359;53.048;8.732;2023-09-19T01:11:40;100566.22;;;16.79;95.26
43745;BME280;29359;53.048;8.732;2023-09-19T01:13:58;100562.09;;;16.73;95.39
43745;BME280;29359;53.048;8.732;2023-09-19T01:16:22;100576.38;;;16.72;96.27
43745;BME280;29359;53.048;8.732;2023-09-19T01:18:47;100575.78;;;16.67;97.15
43745;BME280;29359;53.048;8.732;2023-09-19T01:23:25;100585.75;;;16.48;95.71
43745;BME280;29359;53.048;8.732;2023-09-19T01:28:03;100581.16;;;16.18;92.69
43745;BME280;29359;53.048;8.732;2023-09-19T01:30:14;100588.91;;;16.07;91.90
43745;BME280;29359;53.048;8.732;2023-09-19T01:32:25;100595.56;;;15.98;92.66
43745;BME280;29359;53.048;8.732;2023-09-19T01:34:27;100585.31;;;15.91;93.10
43745;BME280;29359;53.048;8.732;2023-09-19T01:36:45;100589.00;;;15.88;93.55
43745;BME280;29359;53.048;8.732;2023-09-19T01:38:47;100591.06;;;15.83;93.45
43745;BME280;29359;53.048;8.732;2023-09-19T01:40:58;100590.53;;;15.77;92.79
43745;BME280;29359;53.048;8.732;2023-09-19T01:45:57;100615.22;;;15.63;92.16
43745;BME280;29359;53.048;8.732;2023-09-19T01:47:44;100609.25;;;15.58;91.85
43745;BME280;29359;53.048;8.732;2023-09-19T01:52:12;100616.66;;;15.51;91.28
43745;BME280;29359;53.048;8.732;2023-09-19T01:54:26;100612.28;;;15.50;91.95
43745;BME280;29359;53.048;8.732;2023-09-19T01:56:55;100617.78;;;15.47;92.17
43745;BME280;29359;53.048;8.732;2023-09-19T01:58:56;100622.31;;;15.45;92.26
43745;BME280;29359;53.048;8.732;2023-09-19T02:01:01;100617.06;;;15.44;92.21
43745;BME280;29359;53.048;8.732;2023-09-19T02:03:05;100620.50;;;15.46;91.63
43745;BME280;29359;53.048;8.732;2023-09-19T02:05:07;100627.63;;;15.45;91.57
43745;BME280;29359;53.048;8.732;2023-09-19T02:07:10;100625.91;;;15.44;91.53
43745;BME280;29359;53.048;8.732;2023-09-19T02:09:12;100622.72;;;15.37;90.97
43745;BME280;29359;53.048;8.732;2023-09-19T02:11:14;100632.56;;;15.35;90.35
43745;BME280;29359;53.048;8.732;2023-09-19T02:13:18;100629.91;;;15.35;90.14
43745;BME280;29359;53.048;8.732;2023-09-19T02:15:20;100629.13;;;15.33;90.23
43745;BME280;29359;53.048;8.732;2023-09-19T02:17:23;100629.38;;;15.29;90.10
43745;BME280;29359;53.048;8.732;2023-09-19T02:19:27;100625.13;;;15.25;90.12
43745;BME280;29359;53.048;8.732;2023-09-19T02:21:29;100634.13;;;15.22;89.95
43745;BME280;29359;53.048;8.732;2023-09-19T02:23:33;100633.28;;;15.22;89.84
43745;BME280;29359;53.048;8.732;2023-09-19T02:25:34;100636.94;;;15.19;89.80
43745;BME280;29359;53.048;8.732;2023-09-19T02:27:40;100637.06;;;15.16;89.79
43745;BME280;29359;53.048;8.732;2023-09-19T02:29:43;100639.97;;;15.12;89.80
43745;BME280;29359;53.048;8.732;2023-09-19T02:31:45;100639.09;;;15.11;90.17
43745;BME280;29359;53.048;8.732;2023-09-19T02:33:48;100642.69;;;15.10;90.26
43745;BME280;29359;53.048;8.732;2023-09-19T02:35:49;100647.94;;;15.12;89.74
43745;BME280;29359;53.048;8.732;2023-09-19T02:37:52;100648.03;;;15.10;90.38
43745;BME280;29359;53.048;8.732;2023-09-19T02:39:53;100651.53;;;15.11;90.14
43745;BME280;29359;53.048;8.732;2023-09-19T02:41:55;100642.69;;;15.10;89.97
43745;BME280;29359;53.048;8.732;2023-09-19T02:43:57;100649.75;;;15.11;89.82
43745;BME280;29359;53.048;8.732;2023-09-19T02:45:59;100658.50;;;15.13;90.05
43745;BME280;29359;53.048;8.732;2023-09-19T02:48:01;100653.19;;;15.13;89.83
43745;BME280;29359;53.048;8.732;2023-09-19T02:50:04;100646.16;;;15.12;89.86
43745;BME280;29359;53.048;8.732;2023-09-19T02:52:06;100644.41;;;15.11;89.94
43745;BME280;29359;53.048;8.732;2023-09-19T02:54:09;100654.19;;;15.11;89.93
43745;BME280;29359;53.048;8.732;2023-09-19T02:56:11;100656.22;;;15.05;90.07
43745;BME280;29359;53.048;8.732;2023-09-19T02:58:15;100660.69;;;15.05;90.17
43745;BME280;29359;53.048;8.732;2023-09-19T03:00:18;100661.69;;;15.02;90.09
43745;BME280;29359;53.048;8.732;2023-09-19T03:02:23;100658.34;;;14.99;90.95
43745;BME280;29359;53.048;8.732;2023-09-19T03:04:26;100659.41;;;14.95;90.65
43745;BME280;29359;53.048;8.732;2023-09-19T03:06:28;100654.09;;;14.95;91.07
43745;BME280;29359;53.048;8.732;2023-09-19T03:08:32;100657.78;;;14.92;91.17
43745;BME280;29359;53.048;8.732;2023-09-19T03:10:37;100661.53;;;14.88;91.25
43745;BME280;29359;53.048;8.732;2023-09-19T03:12:39;100654.41;;;14.89;91.35
43745;BME280;29359;53.048;8.732;2023-09-19T03:14:41;100667.63;;;14.90;91.49
43745;BME280;29359;53.048;8.732;2023-09-19T03:16:43;100672.22;;;14.87;91.22
43745;BME280;29359;53.048;8.732;2023-09-19T03:18:46;100668.78;;;14.85;91.43
43745;BME280;29359;53.048;8.732;2023-09-19T03:20:55;100677.84;;;14.81;91.53
43745;BME280;29359;53.048;8.732;2023-09-19T03:22:57;100677.06;;;14.79;91.81
43745;BME280;29359;53.048;8.732;2023-09-19T03:24:59;100680.66;;;14.77;91.81
43745;BME280;29359;53.048;8.732;2023-09-19T03:27:02;100686.91;;;14.76;92.11
43745;BME280;29359;53.048;8.732;2023-09-19T03:29:05;100689.63;;;14.75;92.08
43745;BME280;29359;53.048;8.732;2023-09-19T03:31:11;100688.81;;;14.73;92.10
43745;BME280;29359;53.048;8.732;2023-09-19T03:33:13;100688.88;;;14.71;92.05
43745;BME280;29359;53.048;8.732;2023-09-19T03:35:16;100692.63;;;14.67;92.41
43745;BME280;29359;53.048;8.732;2023-09-19T03:37:18;100698.94;;;14.65;92.42
43745;BME280;29359;53.048;8.732;2023-09-19T03:39:20;100690.09;;;14.64;92.80
43745;BME280;29359;53.048;8.732;2023-09-19T03:41:22;100688.38;;;14.63;92.69
43745;BME280;29359;53.048;8.732;2023-09-19T03:43:24;100686.59;;;14.64;92.94
43745;BME280;29359;53.048;8.732;2023-09-19T03:45:26;100691.19;;;14.60;93.13
43745;BME280;29359;53.048;8.732;2023-09-19T03:47:29;100689.47;;;14.59;92.60
43745;BME280;29359;53.048;8.732;2023-09-19T03:49:31;100690.47;;;14.57;92.90
43745;BME280;29359;53.048;8.732;2023-09-19T03:51:33;100688.69;;;14.57;92.81
43745;BME280;29359;53.048;8.732;2023-09-19T03:53:35;100686.09;;;14.56;92.53
43745;BME280;29359;53.048;8.732;2023-09-19T03:55:37;100688.81;;;14.54;92.53
43745;BME280;29359;53.048;8.732;2023-09-19T03:57:40;100697.59;;;14.56;92.22
43745;BME280;29359;53.048;8.732;2023-09-19T03:59:42;100693.13;;;14.57;92.21
43745;BME280;29359;53.048;8.732;2023-09-19T04:01:44;100694.84;;;14.58;91.89
43745;BME280;29359;53.048;8.732;2023-09-19T04:03:46;100700.25;;;14.56;91.66
43745;BME280;29359;53.048;8.732;2023-09-19T04:05:50;100701.16;;;14.55;91.73
43745;BME280;29359;53.048;8.732;2023-09-19T04:07:52;100702.19;;;14.53;91.43
43745;BME280;29359;53.048;8.732;2023-09-19T04:09:54;100706.56;;;14.54;91.51
43745;BME280;29359;53.048;8.732;2023-09-19T04:11:56;100702.25;;;14.51;91.58
43745;BME280;29359;53.048;8.732;2023-09-19T04:13:58;100704.97;;;14.50;91.48
43745;BME280;29359;53.048;8.732;2023-09-19T04:16:00;100707.63;;;14.50;91.22
43745;BME280;29359;53.048;8.732;2023-09-19T04:18:02;100701.38;;;14.51;91.11
43745;BME280;29359;53.048;8.732;2023-09-19T04:20:05;100709.34;;;14.51;90.86
43745;BME280;29359;53.048;8.732;2023-09-19T04:22:09;100705.97;;;14.47;90.91
43745;BME280;29359;53.048;8.732;2023-09-19T04:24:10;100701.59;;;14.46;91.03
43745;BME280;29359;53.048;8.732;2023-09-19T04:26:15;100700.75;;;14.45;91.42
43745;BME280;29359;53.048;8.732;2023-09-19T04:28:19;100702.47;;;14.47;91.40
43745;BME280;29359;53.048;8.732;2023-09-19T04:30:20;100698.94;;;14.46;91.28
43745;BME280;29359;53.048;8.732;2023-09-19T04:32:22;100705.19;;;14.45;91.27
43745;BME280;29359;53.048;8.732;2023-09-19T04:34:24;100706.06;;;14.45;90.84
43745;BME280;29359;53.048;8.732;2023-09-19T04:36:27;100708.78;;;14.44;91.13
43745;BME280;29359;53.048;8.732;2023-09-19T04:38:36;100700.00;;;14.42;90.80
43745;BME280;29359;53.048;8.732;2023-09-19T04:40:38;100697.47;;;14.39;90.62
43745;BME280;29359;53.048;8.732;2023-09-19T04:42:41;100692.31;;;14.36;90.80
43745;BME280;29359;53.048;8.732;2023-09-19T04:44:43;100695.97;;;14.33;91.33
43745;BME280;29359;53.048;8.732;2023-09-19T04:46:45;100709.31;;;14.32;91.25
43745;BME280;29359;53.048;8.732;2023-09-19T04:48:50;100715.59;;;14.29;91.37
43745;BME280;29359;53.048;8.732;2023-09-19T04:50:52;100720.91;;;14.29;91.53
43745;BME280;29359;53.048;8.732;2023-09-19T04:52:54;100720.06;;;14.29;91.75
43745;BME280;29359;53.048;8.732;2023-09-19T04:54:56;100715.66;;;14.28;91.99
43745;BME280;29359;53.048;8.732;2023-09-19T04:56:57;100723.78;;;14.25;92.03
43745;BME280;29359;53.048;8.732;2023-09-19T04:58:59;100729.94;;;14.25;92.33
43745;BME280;29359;53.048;8.732;2023-09-19T05:01:01;100725.44;;;14.27;92.06
43745;BME280;29359;53.048;8.732;2023-09-19T05:03:04;100733.47;;;14.26;92.41
43745;BME280;29359;53.048;8.732;2023-09-19T05:05:09;100745.00;;;14.25;92.58
43745;BME280;29359;53.048;8.732;2023-09-19T05:07:20;100733.47;;;14.26;92.59
43745;BME280;29359;53.048;8.732;2023-09-19T05:09:25;100729.81;;;14.28;92.45
43745;BME280;29359;53.048;8.732;2023-09-19T05:11:26;100735.06;;;14.30;92.26
43745;BME280;29359;53.048;8.732;2023-09-19T05:13:28;100750.09;;;14.31;91.91
43745;BME280;29359;53.048;8.732;2023-09-19T05:15:30;100752.75;;;14.31;91.97
43745;BME280;29359;53.048;8.732;2023-09-19T05:17:33;100756.25;;;14.31;92.31
43745;BME280;29359;53.048;8.732;2023-09-19T05:19:36;100757.16;;;14.30;92.38
43745;BME280;29359;53.048;8.732;2023-09-19T05:21:38;100763.22;;;14.34;92.55
43745;BME280;29359;53.048;8.732;2023-09-19T05:23:43;100748.16;;;14.34;92.32
43745;BME280;29359;53.048;8.732;2023-09-19T05:25:44;100745.44;;;14.36;92.58
43745;BME280;29359;53.048;8.732;2023-09-19T05:27:46;100745.34;;;14.37;92.75
43745;BME280;29359;53.048;8.732;2023-09-19T05:29:49;100739.97;;;14.39;92.52
43745;BME280;29359;53.048;8.732;2023-09-19T05:31:52;100744.34;;;14.40;92.64
43745;BME280;29359;53.048;8.732;2023-09-19T05:33:56;100739.72;;;14.45;92.45
43745;BME280;29359;53.048;8.732;2023-09-19T05:35:58;100743.97;;;14.49;92.11
43745;BME280;29359;53.048;8.732;2023-09-19T05:38:00;100765.16;;;14.51;91.82
43745;BME280;29359;53.048;8.732;2023-09-19T05:40:02;100758.69;;;14.56;92.22
43745;BME280;29359;53.048;8.732;2023-09-19T05:42:14;100764.72;;;14.60;92.15
43745;BME280;29359;53.048;8.732;2023-09-19T05:44:16;100765.44;;;14.63;92.27
43745;BME280;29359;53.048;8.732;2023-09-19T05:46:17;100766.88;;;14.70;91.96
43745;BME280;29359;53.048;8.732;2023-09-19T05:48:20;100763.22;;;14.73;92.06
43745;BME280;29359;53.048;8.732;2023-09-19T05:50:22;100755.19;;;14.74;91.71
43745;BME280;29359;53.048;8.732;2023-09-19T05:52:26;100741.78;;;14.77;90.80
43745;BME280;29359;53.048;8.732;2023-09-19T05:54:28;100744.28;;;14.81;90.87
43745;BME280;29359;53.048;8.732;2023-09-19T05:56:30;100740.63;;;14.83;90.72
43745;BME280;29359;53.048;8.732;2023-09-19T05:58:32;100754.63;;;14.87;90.50
43745;BME280;29359;53.048;8.732;2023-09-19T06:00:34;100759.78;;;14.90;90.69
43745;BME280;29359;53.048;8.732;2023-09-19T06:02:39;100761.38;;;14.94;89.87
43745;BME280;29359;53.048;8.732;2023-09-19T06:04:41;100763.03;;;14.96;89.81
43745;BME280;29359;53.048;8.732;2023-09-19T06:06:43;100774.38;;;15.00;89.81
43745;BME280;29359;53.048;8.732;2023-09-19T06:08:46;100778.75;;;15.01;89.41
43745;BME280;29359;53.048;8.732;2023-09-19T06:10:48;100789.31;;;15.02;89.24
43745;BME280;29359;53.048;8.732;2023-09-19T06:12:50;100784.84;;;15.03;89.17
43745;BME280;29359;53.048;8.732;2023-09-19T06:14:52;100789.31;;;15.02;88.55
43745;BME280;29359;53.048;8.732;2023-09-19T06:16:54;100783.91;;;15.04;88.79
43745;BME280;29359;53.048;8.732;2023-09-19T06:18:56;100782.06;;;15.06;88.38
43745;BME280;29359;53.048;8.732;2023-09-19T06:20:58;100789.03;;;15.08;88.76
43745;BME280;29359;53.048;8.732;2023-09-19T06:23:00;100783.69;;;15.08;88.25
43745;BME280;29359;53.048;8.732;2023-09-19T06:25:12;100783.69;;;15.08;88.55
43745;BME280;29359;53.048;8.732;2023-09-19T06:27:21;100788.16;;;15.08;87.93
43745;BME280;29359;53.048;8.732;2023-09-19T06:29:23;100782.75;;;15.09;88.15
43745;BME280;29359;53.048;8.732;2023-09-19T06:31:26;100784.50;;;15.11;87.49
43745;BME280;29359;53.048;8.732;2023-09-19T06:33:28;100787.06;;;15.12;87.66
43745;BME280;29359;53.048;8.732;2023-09-19T06:35:34;100786.94;;;15.15;87.66
43745;BME280;29359;53.048;8.732;2023-09-19T06:37:35;100780.75;;;15.15;87.10
43745;BME280;29359;53.048;8.732;2023-09-19T06:39:40;100791.31;;;15.16;86.86
43745;BME280;29359;53.048;8.732;2023-09-19T06:41:43;100792.13;;;15.18;86.18
43745;BME280;29359;53.048;8.732;2023-09-19T06:43:47;100788.53;;;15.19;85.98
43745;BME280;29359;53.048;8.732;2023-09-19T06:45:49;100791.91;;;15.23;85.73
43745;BME280;29359;53.048;8.732;2023-09-19T06:47:52;100792.69;;;15.25;85.47
43745;BME280;29359;53.048;8.732;2023-09-19T06:49:55;100794.41;;;15.26;84.90
43745;BME280;29359;53.048;8.732;2023-09-19T06:52:04;100804.03;;;15.28;84.48
43745;BME280;29359;53.048;8.732;2023-09-19T06:54:06;100802.09;;;15.32;84.47
43745;BME280;29359;53.048;8.732;2023-09-19T06:56:08;100807.28;;;15.35;84.37
43745;BME280;29359;53.048;8.732;2023-09-19T06:58:10;100806.09;;;15.40;84.44
43745;BME280;29359;53.048;8.732;2023-09-19T07:00:13;100818.31;;;15.45;84.34
43745;BME280;29359;53.048;8.732;2023-09-19T07:02:20;100822.56;;;15.49;83.97
43745;BME280;29359;53.048;8.732;2023-09-19T07:04:23;100821.63;;;15.50;83.42
43745;BME280;29359;53.048;8.732;2023-09-19T07:06:26;100824.28;;;15.50;82.83
43745;BME280;29359;53.048;8.732;2023-09-19T07:08:28;100828.75;;;15.49;82.54
43745;BME280;29359;53.048;8.732;2023-09-19T07:10:30;100829.75;;;15.47;81.91
43745;BME280;29359;53.048;8.732;2023-09-19T07:12:32;100833.41;;;15.44;81.79
43745;BME280;29359;53.048;8.732;2023-09-19T07:14:37;100827.25;;;15.44;82.34
43745;BME280;29359;53.048;8.732;2023-09-19T07:16:38;100826.38;;;15.43;81.94
43745;BME280;29359;53.048;8.732;2023-09-19T07:18:41;100837.59;;;15.50;81.83
43745;BME280;29359;53.048;8.732;2023-09-19T07:20:46;100839.75;;;15.60;81.59
43745;BME280;29359;53.048;8.732;2023-09-19T07:22:51;100831.25;;;15.71;81.60
43745;BME280;29359;53.048;8.732;2023-09-19T07:24:53;100838.72;;;15.82;80.94
43745;BME280;29359;53.048;8.732;2023-09-19T07:26:55;100834.81;;;15.89;80.64
43745;BME280;29359;53.048;8.732;2023-09-19T07:28:57;100827.53;;;15.92;79.79
43745;BME280;29359;53.048;8.732;2023-09-19T07:31:01;100831.91;;;15.93;79.83
43745;BME280;29359;53.048;8.732;2023-09-19T07:33:05;100838.97;;;15.94;79.68
43745;BME280;29359;53.048;8.732;2023-09-19T07:35:07;100830.97;;;15.94;79.00
43745;BME280;29359;53.048;8.732;2023-09-19T07:37:11;100839.75;;;15.96;78.36
43745;BME280;29359;53.048;8.732;2023-09-19T07:39:14;100835.19;;;15.98;78.06
43745;BME280;29359;53.048;8.732;2023-09-19T07:41:24;100837.59;;;16.05;77.63
43745;BME280;29359;53.048;8.732;2023-09-19T07:43:25;100834.59;;;16.11;77.08
43745;BME280;29359;53.048;8.732;2023-09-19T07:45:28;100828.97;;;16.17;76.97
43745;BME280;29359;53.048;8.732;2023-09-19T07:47:31;100838.44;;;16.22;76.73
43745;BME280;29359;53.048;8.732;2023-09-19T07:49:34;100841.72;;;16.27;76.37
43745;BME280;29359;53.048;8.732;2023-09-19T07:51:36;100833.56;;;16.30;75.99
43745;BME280;29359;53.048;8.732;2023-09-19T07:53:37;100831.53;;;16.36;75.91
43745;BME280;29359;53.048;8.732;2023-09-19T07:55:41;100834.81;;;16.41;75.54
43745;BME280;29359;53.048;8.732;2023-09-19T07:57:44;100838.09;;;16.46;75.78
43745;BME280;29359;53.048;8.732;2023-09-19T07:59:46;100837.78;;;16.52;75.66
43745;BME280;29359;53.048;8.732;2023-09-19T08:01:47;100837.38;;;16.59;75.58
43745;BME280;29359;53.048;8.732;2023-09-19T08:03:50;100839.75;;;16.66;74.17
43745;BME280;29359;53.048;8.732;2023-09-19T08:05:52;100830.72;;;16.68;73.90
43745;BME280;29359;53.048;8.732;2023-09-19T08:07:53;100851.13;;;16.69;72.63
43745;BME280;29359;53.048;8.732;2023-09-19T08:09:58;100845.00;;;16.67;72.09
43745;BME280;29359;53.048;8.732;2023-09-19T08:12:00;100844.06;;;16.68;72.36
43745;BME280;29359;53.048;8.732;2023-09-19T08:14:06;100858.09;;;16.72;72.54
43745;BME280;29359;53.048;8.732;2023-09-19T08:16:10;100843.66;;;16.76;72.56
43745;BME280;29359;53.048;8.732;2023-09-19T08:18:12;100849.69;;;16.79;72.89
43745;BME280;29359;53.048;8.732;2023-09-19T08:20:14;100856.56;;;16.83;71.98
43745;BME280;29359;53.048;8.732;2023-09-19T08:22:20;100856.31;;;16.88;72.10
43745;BME280;29359;53.048;8.732;2023-09-19T08:24:29;100850.75;;;16.92;72.67
43745;BME280;29359;53.048;8.732;2023-09-19T08:26:31;100853.34;;;16.94;71.78
43745;BME280;29359;53.048;8.732;2023-09-19T08:28:34;100848.00;;;16.94;72.10
43745;BME280;29359;53.048;8.732;2023-09-19T08:30:36;100848.72;;;16.98;72.55
43745;BME280;29359;53.048;8.732;2023-09-19T08:32:39;100843.03;;;17.04;72.30
43745;BME280;29359;53.048;8.732;2023-09-19T08:34:44;100840.44;;;17.02;71.41
43745;BME280;29359;53.048;8.732;2023-09-19T08:36:45;100857.31;;;17.03;71.59
43745;BME280;29359;53.048;8.732;2023-09-19T08:38:49;100854.81;;;17.00;70.80
43745;BME280;29359;53.048;8.732;2023-09-19T08:40:51;100853.19;;;16.97;71.00
43745;BME280;29359;53.048;8.732;2023-09-19T08:42:56;100853.25;;;16.95;71.02
43745;BME280;29359;53.048;8.732;2023-09-19T08:44:59;100852.25;;;16.98;70.99
43745;BME280;29359;53.048;8.732;2023-09-19T08:47:14;100857.22;;;17.04;71.52
43745;BME280;29359;53.048;8.732;2023-09-19T08:49:28;100864.13;;;17.08;70.77
43745;BME280;29359;53.048;8.732;2023-09-19T08:51:45;100850.44;;;17.14;71.36
43745;BME280;29359;53.048;8.732;2023-09-19T08:56:08;100854.41;;;17.23;70.52
43745;BME280;29359;53.048;8.732;2023-09-19T08:58:13;100853.47;;;17.24;71.26
43745;BME280;29359;53.048;8.732;2023-09-19T09:00:22;100852.16;;;17.31;71.38
43745;BME280;29359;53.048;8.732;2023-09-19T09:02:24;100866.28;;;17.33;70.05
43745;BME280;29359;53.048;8.732;2023-09-19T09:04:27;100861.75;;;17.35;69.79
43745;BME280;29359;53.048;8.732;2023-09-19T09:06:29;100874.06;;;17.38;69.85
43745;BME280;29359;53.048;8.732;2023-09-19T09:08:34;100858.75;;;17.41;70.01
43745;BME280;29359;53.048;8.732;2023-09-19T09:10:37;100867.53;;;17.43;68.69
43745;BME280;29359;53.048;8.732;2023-09-19T09:12:40;100873.56;;;17.47;69.40
43745;BME280;29359;53.048;8.732;2023-09-19T09:14:46;100863.56;;;17.50;68.57
43745;BME280;29359;53.048;8.732;2023-09-19T09:16:51;100870.53;;;17.53;69.49
43745;BME280;29359;53.048;8.732;2023-09-19T09:18:58;100868.38;;;17.59;68.81
43745;BME280;29359;53.048;8.732;2023-09-19T09:21:00;100871.63;;;17.65;68.79
43745;BME280;29359;53.048;8.732;2023-09-19T09:23:02;100868.75;;;17.69;68.74
43745;BME280;29359;53.048;8.732;2023-09-19T09:25:05;100868.47;;;17.74;67.35
43745;BME280;29359;53.048;8.732;2023-09-19T09:27:07;100867.53;;;17.75;66.44
43745;BME280;29359;53.048;8.732;2023-09-19T09:29:12;100864.72;;;17.78;65.90
43745;BME280;29359;53.048;8.732;2023-09-19T09:31:23;100862.91;;;17.78;65.10
43745;BME280;29359;53.048;8.732;2023-09-19T09:33:25;100869.25;;;17.76;65.73
43745;BME280;29359;53.048;8.732;2023-09-19T09:35:27;100867.59;;;17.73;64.41
43745;BME280;29359;53.048;8.732;2023-09-19T09:37:29;100873.03;;;17.72;65.40
43745;BME280;29359;53.048;8.732;2023-09-19T09:39:32;100867.44;;;17.76;65.90
43745;BME280;29359;53.048;8.732;2023-09-19T09:41:36;100871.50;;;17.83;65.90
43745;BME280;29359;53.048;8.732;2023-09-19T09:43:42;100884.59;;;17.88;63.90
43745;BME280;29359;53.048;8.732;2023-09-19T09:46:06;100875.19;;;17.97;63.88
43745;BME280;29359;53.048;8.732;2023-09-19T09:48:29;100882.84;;;18.03;63.55
43745;BME280;29359;53.048;8.732;2023-09-19T09:50:35;100887.13;;;18.05;64.24
43745;BME280;29359;53.048;8.732;2023-09-19T09:52:46;100887.91;;;18.07;65.30
43745;BME280;29359;53.048;8.732;2023-09-19T09:54:59;100885.31;;;18.06;63.79
43745;BME280;29359;53.048;8.732;2023-09-19T09:57:08;100890.84;;;18.03;63.31
43745;BME280;29359;53.048;8.732;2023-09-19T09:59:18;100890.84;;;18.03;64.76
43745;BME280;29359;53.048;8.732;2023-09-19T10:01:22;100889.53;;;18.10;65.10
43745;BME280;29359;53.048;8.732;2023-09-19T10:03:33;100892.63;;;18.18;65.72
43745;BME280;29359;53.048;8.732;2023-09-19T10:05:36;100887.13;;;18.21;64.46
43745;BME280;29359;53.048;8.732;2023-09-19T10:07:46;100884.50;;;18.19;64.54
43745;BME280;29359;53.048;8.732;2023-09-19T10:10:06;100878.16;;;18.22;63.43
43745;BME280;29359;53.048;8.732;2023-09-19T10:12:29;100884.25;;;18.24;63.49
43745;BME280;29359;53.048;8.732;2023-09-19T10:14:34;100873.47;;;18.26;64.69
43745;BME280;29359;53.048;8.732;2023-09-19T10:16:40;100880.47;;;18.28;64.34
43745;BME280;29359;53.048;8.732;2023-09-19T10:18:43;100882.38;;;18.26;64.35
43745;BME280;29359;53.048;8.732;2023-09-19T10:20:46;100876.66;;;18.16;63.12
43745;BME280;29359;53.048;8.732;2023-09-19T10:22:50;100884.19;;;18.10;64.23
43745;BME280;29359;53.048;8.732;2023-09-19T10:24:59;100887.91;;;18.07;64.40
43745;BME280;29359;53.048;8.732;2023-09-19T10:27:06;100891.34;;;18.09;64.80
43745;BME280;29359;53.048;8.732;2023-09-19T10:29:13;100876.50;;;18.19;65.10
43745;BME280;29359;53.048;8.732;2023-09-19T10:31:19;100891.16;;;18.28;64.49
43745;BME280;29359;53.048;8.732;2023-09-19T10:33:24;100891.56;;;18.36;65.58
43745;BME280;29359;53.048;8.732;2023-09-19T10:35:32;100885.38;;;18.50;63.50
43745;BME280;29359;53.048;8.732;2023-09-19T10:37:35;100883.84;;;18.60;62.03
43745;BME280;29359;53.048;8.732;2023-09-19T10:39:39;100882.03;;;18.76;63.36
43745;BME280;29359;53.048;8.732;2023-09-19T10:41:42;100896.75;;;18.98;62.49
43745;BME280;29359;53.048;8.732;2023-09-19T10:43:48;100886.91;;;19.12;60.88
43745;BME280;29359;53.048;8.732;2023-09-19T10:45:50;100879.00;;;19.11;61.10
43745;BME280;29359;53.048;8.732;2023-09-19T10:47:54;100883.38;;;19.12;61.18
43745;BME280;29359;53.048;8.732;2023-09-19T10:49:58;100885.66;;;19.04;59.82
43745;BME280;29359;53.048;8.732;2023-09-19T10:52:00;100884.59;;;19.06;60.74
43745;BME280;29359;53.048;8.732;2023-09-19T10:54:12;100873.97;;;19.33;60.05
43745;BME280;29359;53.048;8.732;2023-09-19T10:56:19;100880.50;;;19.58;59.94
43745;BME280;29359;53.048;8.732;2023-09-19T10:58:31;100879.72;;;19.83;59.95
43745;BME280;29359;53.048;8.732;2023-09-19T11:00:53;100869.53;;;20.02;59.02
43745;BME280;29359;53.048;8.732;2023-09-19T11:05:21;100873.97;;;20.43;57.22